Time;durP1;ratioP1;P1;durP2;ratioP2;P2;SDS_P1;SDS_P2;PMS_P1;PMS_P2;Temp;Humidity;BMP_temperature;BMP_pressure;BME280_temperature;BME280_humidity;BME280_pressure;Samples;Min_cycle;Max_cycle;Signal;HPM_P1;HPM_P2
2021/03/20 00:00:55;;;;;;;68.60;11.35;;;-2.10;1.00;;;;;;5135576;27;20301;-65
2021/03/20 00:03:21;;;;;;;68.20;12.00;;;-2.10;1.00;;;;;;5136213;27;20576;-65
2021/03/20 00:05:48;;;;;;;66.40;11.57;;;-2.10;1.00;;;;;;5135924;27;20214;-65
2021/03/20 00:08:18;;;;;;;72.68;14.48;;;-2.10;1.00;;;;;;5135652;27;20747;-65
2021/03/20 00:10:44;;;;;;;70.22;14.00;;;-2.10;1.00;;;;;;5135704;27;20263;-65
2021/03/20 00:13:12;;;;;;;67.13;11.52;;;-2.10;1.00;;;;;;5135601;27;20286;-65
2021/03/20 00:15:39;;;;;;;72.53;13.43;;;-2.20;1.00;;;;;;5135429;27;20235;-65
2021/03/20 00:18:06;;;;;;;73.00;14.20;;;-2.20;1.00;;;;;;5135862;27;20262;-65
2021/03/20 00:20:35;;;;;;;80.00;16.25;;;-2.20;1.00;;;;;;5136284;27;20207;-65
2021/03/20 00:23:02;;;;;;;73.00;13.80;;;-2.20;1.00;;;;;;5136110;27;20290;-65
2021/03/20 00:25:28;;;;;;;71.55;12.55;;;-2.20;1.00;;;;;;5134671;27;20291;-65
2021/03/20 00:27:55;;;;;;;69.70;11.95;;;-2.20;1.00;;;;;;5135863;27;20226;-65
2021/03/20 00:30:23;;;;;;;68.28;11.60;;;-2.20;1.00;;;;;;5135983;27;20694;-66
2021/03/20 00:32:50;;;;;;;68.72;12.68;;;-2.30;1.00;;;;;;5135634;27;20222;-66
2021/03/20 00:35:18;;;;;;;67.22;11.88;;;-2.30;1.00;;;;;;5136066;27;20616;-65
2021/03/20 00:37:45;;;;;;;68.07;11.98;;;-2.30;1.00;;;;;;5135867;27;20309;-66
2021/03/20 00:40:15;;;;;;;68.60;12.27;;;-2.30;1.00;;;;;;5135468;27;20662;-66
2021/03/20 00:42:41;;;;;;;72.10;14.20;;;-2.30;1.00;;;;;;5135620;27;20335;-65
2021/03/20 00:45:10;;;;;;;69.63;13.70;;;-2.40;1.00;;;;;;5136100;27;20242;-65
2021/03/20 00:47:38;;;;;;;72.40;14.43;;;-2.40;1.00;;;;;;5135639;27;20653;-66
2021/03/20 00:50:07;;;;;;;73.53;14.15;;;-2.40;1.00;;;;;;5136102;27;20745;-65
2021/03/20 00:52:34;;;;;;;69.50;13.35;;;-2.40;1.00;;;;;;5135912;27;20260;-65
2021/03/20 00:55:00;;;;;;;71.25;14.23;;;-2.40;1.00;;;;;;5135814;27;20213;-66
2021/03/20 00:57:27;;;;;;;70.95;14.13;;;-2.40;1.00;;;;;;5135522;27;20222;-65
2021/03/20 00:59:53;;;;;;;71.88;14.35;;;-2.40;1.00;;;;;;5135670;27;20203;-65
2021/03/20 01:02:20;;;;;;;69.20;12.63;;;-2.30;1.00;;;;;;5135229;27;20211;-66
2021/03/20 01:04:47;;;;;;;69.90;13.57;;;-2.30;1.00;;;;;;5135361;27;20748;-66
2021/03/20 01:07:13;;;;;;;68.07;12.07;;;-2.30;1.00;;;;;;5135253;27;20710;-66
2021/03/20 01:09:40;;;;;;;67.70;12.10;;;-2.30;1.00;;;;;;5135417;27;20209;-66
2021/03/20 01:12:07;;;;;;;72.13;14.18;;;-2.30;1.00;;;;;;5135391;27;20303;-66
2021/03/20 01:14:33;;;;;;;70.75;13.20;;;-2.20;1.00;;;;;;5135155;27;20298;-66
2021/03/20 01:17:00;;;;;;;70.90;13.82;;;-2.20;1.00;;;;;;5135033;27;20258;-66
2021/03/20 01:19:26;;;;;;;68.40;12.50;;;-2.20;1.00;;;;;;5135140;27;20234;-66
2021/03/20 01:21:53;;;;;;;69.93;13.23;;;-2.20;1.00;;;;;;5134696;27;20340;-66
2021/03/20 01:24:20;;;;;;;73.75;15.55;;;-2.20;1.00;;;;;;5134099;27;20254;-66
2021/03/20 01:26:46;;;;;;;80.95;17.50;;;-2.20;1.00;;;;;;5133872;27;20298;-66
2021/03/20 01:29:13;;;;;;;73.20;14.90;;;-2.20;1.00;;;;;;5133806;27;20248;-66
2021/03/20 01:31:39;;;;;;;69.07;13.30;;;-2.20;1.00;;;;;;5134019;27;20245;-66
2021/03/20 01:34:05;;;;;;;69.43;12.93;;;-2.30;1.00;;;;;;5133570;27;20294;-66
2021/03/20 01:36:32;;;;;;;70.57;14.30;;;-2.30;1.00;;;;;;5133483;27;20268;-66
2021/03/20 01:38:59;;;;;;;69.65;12.48;;;-2.40;1.00;;;;;;5133980;27;20210;-66
2021/03/20 01:41:27;;;;;;;71.03;12.95;;;-2.40;1.00;;;;;;5133684;27;20286;-66
2021/03/20 01:43:53;;;;;;;68.57;13.27;;;-2.40;1.00;;;;;;5133315;27;20259;-66
2021/03/20 01:46:39;;;;;;;69.72;14.02;;;-2.40;1.00;;;;;;5133719;27;20627;-66
2021/03/20 01:49:18;;;;;;;72.03;14.98;;;-2.40;1.00;;;;;;5133332;27;20616;-66
2021/03/20 01:51:55;;;;;;;69.28;13.10;;;-2.30;1.00;;;;;;5133342;27;20229;-66
2021/03/20 01:54:23;;;;;;;67.95;12.80;;;-2.20;1.00;;;;;;5133046;27;20584;-66
2021/03/20 01:56:50;;;;;;;71.50;13.35;;;-2.10;1.00;;;;;;5133306;27;20222;-66
2021/03/20 01:59:18;;;;;;;71.95;12.88;;;-2.10;1.00;;;;;;5133482;27;20310;-66
2021/03/20 02:01:44;;;;;;;68.20;12.70;;;-2.00;1.00;;;;;;5133238;27;20715;-66
2021/03/20 02:04:10;;;;;;;72.72;16.80;;;-1.90;1.00;;;;;;5133610;27;20266;-66
2021/03/20 02:06:37;;;;;;;99.18;30.08;;;-1.80;1.00;;;;;;5132947;27;20209;-66
2021/03/20 02:09:06;;;;;;;99.38;29.38;;;-1.70;1.00;;;;;;5132917;27;20783;-66
2021/03/20 02:11:36;;;;;;;90.00;25.67;;;-1.60;1.00;;;;;;5133111;27;20683;-66
2021/03/20 02:14:12;;;;;;;86.63;24.02;;;-1.60;1.00;;;;;;5133011;27;20238;-66
2021/03/20 02:16:47;;;;;;;93.90;25.85;;;-1.50;1.00;;;;;;5132941;27;20293;-66
2021/03/20 02:19:18;;;;;;;99.35;30.77;;;-1.40;1.00;;;;;;5132756;27;20644;-66
2021/03/20 02:21:52;;;;;;;98.40;25.73;;;-1.40;1.00;;;;;;5133177;27;20290;-66
2021/03/20 02:24:55;;;;;;;100.75;26.52;;;-1.30;1.00;;;;;;5132956;27;20362;-66
2021/03/20 02:28:00;;;;;;;80.22;18.60;;;-1.30;1.00;;;;;;5132710;27;20254;-66
2021/03/20 02:30:57;;;;;;;80.93;19.05;;;-1.30;1.00;;;;;;5132662;27;20574;-66
2021/03/20 02:33:36;;;;;;;81.25;19.20;;;-1.20;1.00;;;;;;5132450;27;20663;-66
2021/03/20 02:36:33;;;;;;;78.63;17.38;;;-1.20;1.00;;;;;;5132388;27;20252;-66
2021/03/20 02:39:08;;;;;;;73.82;15.60;;;-1.20;1.00;;;;;;5119646;27;20689;-66
2021/03/20 02:41:45;;;;;;;74.65;15.85;;;-1.10;1.00;;;;;;5132759;27;20571;-66
2021/03/20 02:44:18;;;;;;;71.10;14.80;;;-1.10;1.00;;;;;;5132446;27;20287;-65
2021/03/20 02:46:50;;;;;;;70.15;14.85;;;-1.10;1.00;;;;;;5132367;27;20293;-67
2021/03/20 02:49:26;;;;;;;72.68;15.40;;;-1.00;1.00;;;;;;5132309;27;20293;-66
2021/03/20 02:51:58;;;;;;;77.88;16.55;;;-1.00;1.00;;;;;;5132231;27;20710;-66
2021/03/20 02:54:28;;;;;;;75.18;15.30;;;-0.90;1.00;;;;;;5132374;27;20818;-66
2021/03/20 02:57:02;;;;;;;72.43;14.73;;;-0.90;1.00;;;;;;5132199;27;20268;-65
2021/03/20 02:59:32;;;;;;;70.80;14.65;;;-0.90;1.00;;;;;;5132606;27;20234;-66
2021/03/20 03:02:03;;;;;;;77.25;17.38;;;-0.80;1.00;;;;;;5132442;27;20515;-65
2021/03/20 03:04:34;;;;;;;75.90;16.67;;;-0.80;1.00;;;;;;5132706;27;20289;-66
2021/03/20 03:07:05;;;;;;;71.50;13.90;;;-0.80;1.00;;;;;;5132342;27;20318;-66
2021/03/20 03:09:38;;;;;;;70.18;14.68;;;-0.80;1.00;;;;;;5132477;27;20679;-65
2021/03/20 03:12:09;;;;;;;70.90;13.52;;;-0.80;1.00;;;;;;5133315;27;20251;-66
2021/03/20 03:14:40;;;;;;;72.20;14.60;;;-0.80;1.00;;;;;;5131873;27;20218;-66
2021/03/20 03:17:08;;;;;;;73.28;13.98;;;-0.70;1.00;;;;;;5132185;27;20353;-66
2021/03/20 03:19:40;;;;;;;72.65;13.80;;;-0.70;1.00;;;;;;5131954;27;20205;-66
2021/03/20 03:22:11;;;;;;;71.78;14.73;;;-0.70;1.00;;;;;;5132286;27;20249;-66
2021/03/20 03:24:41;;;;;;;72.10;13.70;;;-0.70;1.00;;;;;;5132374;27;20293;-66
2021/03/20 03:27:10;;;;;;;71.22;14.68;;;-0.60;1.00;;;;;;5132287;27;20866;-66
2021/03/20 03:29:37;;;;;;;73.63;14.45;;;-0.70;1.00;;;;;;5132281;27;20727;-66
2021/03/20 03:32:09;;;;;;;77.68;14.45;;;-0.60;1.00;;;;;;5131859;27;20570;-66
2021/03/20 03:34:45;;;;;;;69.25;12.57;;;-0.60;1.00;;;;;;5131943;27;20211;-66
2021/03/20 03:37:16;;;;;;;75.18;14.93;;;-0.60;1.00;;;;;;5132146;27;20317;-66
2021/03/20 03:39:50;;;;;;;72.38;14.30;;;-0.60;1.00;;;;;;5132067;27;20207;-65
2021/03/20 03:42:19;;;;;;;74.03;15.27;;;-0.60;1.00;;;;;;5131882;27;20202;-65
2021/03/20 03:44:47;;;;;;;70.85;14.43;;;-0.60;1.00;;;;;;5132304;27;20203;-65
2021/03/20 03:47:16;;;;;;;73.57;15.18;;;-0.50;1.00;;;;;;5132100;27;20225;-65
2021/03/20 03:49:43;;;;;;;71.65;13.35;;;-0.60;1.00;;;;;;5131793;27;20697;-65
2021/03/20 03:52:12;;;;;;;72.05;13.73;;;-0.60;1.00;;;;;;5131984;27;20229;-65
2021/03/20 03:54:39;;;;;;;71.63;13.70;;;-0.60;1.00;;;;;;5131898;27;20206;-66
2021/03/20 03:57:31;;;;;;;70.63;13.25;;;-0.60;1.00;;;;;;5131585;27;20655;-66
2021/03/20 04:00:09;;;;;;;70.18;14.07;;;-0.60;1.00;;;;;;5133368;27;20290;-66
2021/03/20 04:03:03;;;;;;;70.68;13.68;;;-0.60;1.00;;;;;;5135630;27;20671;-66
2021/03/20 04:05:36;;;;;;;67.03;12.27;;;-0.60;1.00;;;;;;5135309;27;20242;-66
2021/03/20 04:08:11;;;;;;;70.40;13.90;;;-0.60;1.00;;;;;;5135642;27;20283;-66
2021/03/20 04:10:44;;;;;;;69.60;13.50;;;-0.60;1.00;;;;;;5135439;27;20234;-66
2021/03/20 04:13:17;;;;;;;69.30;14.55;;;-0.70;1.00;;;;;;5135214;27;20309;-66
2021/03/20 04:15:55;;;;;;;70.07;14.32;;;-0.70;1.00;;;;;;5135269;27;20254;-66
2021/03/20 04:18:30;;;;;;;72.35;14.23;;;-0.80;1.00;;;;;;5135387;27;20314;-66
2021/03/20 04:21:10;;;;;;;65.95;12.25;;;-0.80;1.00;;;;;;5135383;27;20207;-66
2021/03/20 04:23:43;;;;;;;69.57;13.80;;;-0.80;1.00;;;;;;5135081;27;20301;-66
2021/03/20 04:26:17;;;;;;;67.82;12.70;;;-0.90;1.00;;;;;;5135074;27;20711;-66
2021/03/20 04:28:48;;;;;;;69.40;12.85;;;-0.90;1.00;;;;;;5134871;27;20283;-66
2021/03/20 04:31:27;;;;;;;67.68;12.77;;;-1.00;1.00;;;;;;5134931;27;20198;-66
2021/03/20 04:34:05;;;;;;;67.32;12.82;;;-1.10;1.00;;;;;;5135050;27;20290;-66
2021/03/20 04:36:37;;;;;;;71.40;13.88;;;-1.20;1.00;;;;;;5134761;27;20203;-66
2021/03/20 04:39:06;;;;;;;69.65;13.63;;;-1.20;1.00;;;;;;5134778;27;20325;-66
2021/03/20 04:41:33;;;;;;;70.05;12.82;;;-1.30;1.00;;;;;;5135249;27;20234;-66
2021/03/20 04:44:00;;;;;;;70.38;14.25;;;-1.30;1.00;;;;;;5134766;27;20207;-66
2021/03/20 04:46:31;;;;;;;69.50;14.35;;;-1.40;1.00;;;;;;5134771;27;20584;-66
2021/03/20 04:49:07;;;;;;;77.03;16.45;;;-1.50;1.00;;;;;;5134534;27;20209;-66
2021/03/20 04:51:38;;;;;;;70.25;13.15;;;-1.50;1.00;;;;;;5134523;27;20698;-66
2021/03/20 04:54:09;;;;;;;70.15;13.93;;;-1.50;1.00;;;;;;5134545;27;20276;-66
2021/03/20 04:56:42;;;;;;;72.40;17.67;;;-1.60;1.00;;;;;;5134559;27;20209;-66
2021/03/20 04:59:20;;;;;;;70.75;14.93;;;-1.60;1.00;;;;;;5134580;27;20207;-67
2021/03/20 05:01:48;;;;;;;68.15;12.80;;;-1.70;1.00;;;;;;5134346;27;20285;-66
2021/03/20 05:04:21;;;;;;;67.18;11.48;;;-1.70;1.00;;;;;;5134571;27;20207;-66
2021/03/20 05:06:49;;;;;;;69.57;11.57;;;-1.70;1.00;;;;;;5134369;27;20211;-66
2021/03/20 05:09:21;;;;;;;66.75;12.20;;;-1.80;1.00;;;;;;5134235;27;20204;-66
2021/03/20 05:11:54;;;;;;;66.63;11.65;;;-1.80;1.00;;;;;;5133799;27;20222;-66
2021/03/20 05:14:28;;;;;;;67.05;11.98;;;-1.80;1.00;;;;;;5134262;27;20206;-66
2021/03/20 05:16:56;;;;;;;66.18;12.18;;;-1.80;1.00;;;;;;5134371;27;20223;-66
2021/03/20 05:19:24;;;;;;;68.25;12.05;;;-1.90;1.00;;;;;;5134289;27;20222;-66
2021/03/20 05:21:54;;;;;;;66.47;11.23;;;-1.90;1.00;;;;;;5133948;27;20251;-67
2021/03/20 05:24:22;;;;;;;67.25;12.35;;;-1.90;1.00;;;;;;5134022;27;20213;-67
2021/03/20 05:26:49;;;;;;;70.70;12.25;;;-1.90;1.00;;;;;;5133696;27;20231;-67
2021/03/20 05:29:15;;;;;;;67.35;12.00;;;-1.90;1.00;;;;;;5133975;27;20234;-66
2021/03/20 05:31:42;;;;;;;72.07;12.73;;;-1.80;1.00;;;;;;5133856;27;20691;-67
2021/03/20 05:34:18;;;;;;;65.40;11.75;;;-1.80;1.00;;;;;;5133547;27;20230;-66
2021/03/20 05:36:45;;;;;;;66.32;10.27;;;-1.80;1.00;;;;;;5133596;27;20206;-67
2021/03/20 05:39:13;;;;;;;64.40;10.50;;;-1.80;1.00;;;;;;5133448;27;20577;-66
2021/03/20 05:41:53;;;;;;;67.82;13.15;;;-1.70;1.00;;;;;;5133845;27;20331;-67
2021/03/20 05:44:37;;;;;;;67.35;11.68;;;-1.70;1.00;;;;;;5133667;27;20248;-67
2021/03/20 05:47:11;;;;;;;68.60;11.82;;;-1.70;1.00;;;;;;5133526;27;20307;-65
2021/03/20 05:49:53;;;;;;;70.47;12.00;;;-1.70;1.00;;;;;;5133287;27;20210;-66
2021/03/20 05:52:40;;;;;;;66.75;10.98;;;-1.70;1.00;;;;;;5133401;27;20277;-66
2021/03/20 05:55:28;;;;;;;65.05;10.77;;;-1.70;1.00;;;;;;5133265;27;20294;-66
2021/03/20 05:58:25;;;;;;;71.63;12.25;;;-1.70;1.00;;;;;;5133100;27;20659;-66
2021/03/20 06:00:59;;;;;;;67.97;12.48;;;-1.70;1.00;;;;;;5133606;27;20194;-66
2021/03/20 06:03:43;;;;;;;68.00;12.50;;;-1.60;1.00;;;;;;5133098;27;20285;-66
2021/03/20 06:06:33;;;;;;;69.30;13.80;;;-1.50;1.00;;;;;;5133030;27;20213;-66
2021/03/20 06:09:13;;;;;;;70.30;13.65;;;-1.50;1.00;;;;;;5132982;27;20199;-66
2021/03/20 06:12:01;;;;;;;71.25;13.57;;;-1.40;1.00;;;;;;5133333;27;20219;-66
2021/03/20 06:14:48;;;;;;;68.60;12.80;;;-1.30;1.00;;;;;;5133065;27;20203;-66
2021/03/20 06:17:29;;;;;;;70.28;13.57;;;-1.20;1.00;;;;;;5132719;27;20222;-66
2021/03/20 06:20:18;;;;;;;69.28;13.98;;;-1.10;1.00;;;;;;5133127;27;20290;-66
2021/03/20 06:23:15;;;;;;;71.25;14.48;;;-0.90;1.00;;;;;;5132016;27;20567;-66
2021/03/20 06:25:52;;;;;;;73.35;16.63;;;-0.80;1.00;;;;;;5132779;27;20239;-66
2021/03/20 06:28:25;;;;;;;77.80;19.27;;;-0.70;1.00;;;;;;5132707;27;20232;-66
2021/03/20 06:30:57;;;;;;;72.75;17.40;;;-0.60;1.00;;;;;;5132796;27;20298;-66
2021/03/20 06:33:28;;;;;;;78.22;20.60;;;-0.50;1.00;;;;;;5132330;27;20314;-66
2021/03/20 06:35:59;;;;;;;75.38;20.25;;;-0.40;1.00;;;;;;5132570;27;20301;-66
2021/03/20 06:38:39;;;;;;;77.50;18.45;;;-0.30;1.00;;;;;;5132631;27;20648;-66
2021/03/20 06:41:16;;;;;;;75.03;17.77;;;-0.20;1.00;;;;;;5133010;27;20313;-66
2021/03/20 06:43:49;;;;;;;73.50;15.20;;;-0.10;1.00;;;;;;5132553;27;20212;-66
2021/03/20 06:46:18;;;;;;;68.43;12.77;;;0.10;1.00;;;;;;5132735;27;20207;-66
2021/03/20 06:48:45;;;;;;;66.15;12.55;;;0.20;1.00;;;;;;5132412;27;20233;-66
2021/03/20 06:51:11;;;;;;;69.15;12.23;;;0.30;1.00;;;;;;5132508;27;20205;-66
2021/03/20 06:53:46;;;;;;;66.72;10.10;;;0.40;1.00;;;;;;5132386;27;20674;-66
2021/03/20 06:56:16;;;;;;;64.93;9.43;;;0.40;1.00;;;;;;5132347;27;20293;-66
2021/03/20 06:58:45;;;;;;;62.47;9.32;;;0.50;1.00;;;;;;5132435;27;20519;-66
2021/03/20 07:01:20;;;;;;;64.05;9.02;;;0.60;1.00;;;;;;5132536;27;20234;-66
2021/03/20 07:04:13;;;;;;;62.63;8.75;;;0.70;1.00;;;;;;5132235;27;20289;-66
2021/03/20 07:06:52;;;;;;;62.40;8.52;;;0.80;1.00;;;;;;5132263;27;20293;-67
2021/03/20 07:09:18;;;;;;;63.47;7.50;;;0.90;1.00;;;;;;5132588;27;20230;-67
2021/03/20 07:12:04;;;;;;;63.10;7.93;;;1.00;1.00;;;;;;5132449;27;20329;-67
2021/03/20 07:14:38;;;;;;;65.45;7.13;;;1.00;1.00;;;;;;5132360;27;20203;-67
2021/03/20 07:17:08;;;;;;;60.08;7.15;;;1.10;1.00;;;;;;5132058;27;20686;-67
2021/03/20 07:19:34;;;;;;;60.67;7.13;;;1.10;1.00;;;;;;5132354;27;20285;-67
2021/03/20 07:22:07;;;;;;;67.43;7.13;;;1.20;1.00;;;;;;5132417;27;20631;-67
2021/03/20 07:24:37;;;;;;;60.15;7.30;;;1.30;1.00;;;;;;5132312;27;20294;-67
2021/03/20 07:27:18;;;;;;;60.17;6.82;;;1.40;1.00;;;;;;5132067;27;20233;-67
2021/03/20 07:29:48;;;;;;;61.08;6.45;;;1.60;1.00;;;;;;5131875;27;20213;-67
2021/03/20 07:32:17;;;;;;;60.67;7.25;;;1.80;1.00;;;;;;5131860;27;20226;-67
2021/03/20 07:34:44;;;;;;;62.72;6.93;;;1.90;1.00;;;;;;5134963;27;20385;-67
2021/03/20 07:37:23;;;;;;;61.05;7.43;;;2.00;1.00;;;;;;5136055;27;20254;-67
2021/03/20 07:39:52;;;;;;;60.60;7.22;;;2.10;1.00;;;;;;5136007;27;20285;-67
2021/03/20 07:42:32;;;;;;;61.88;7.45;;;2.20;1.00;;;;;;5135759;27;20207;-67
2021/03/20 07:45:01;;;;;;;58.58;6.30;;;2.30;1.00;;;;;;5135985;27;20199;-67
2021/03/20 07:47:29;;;;;;;66.13;7.10;;;2.40;1.00;;;;;;5135867;27;20714;-67
2021/03/20 07:50:24;;;;;;;60.75;6.82;;;2.50;1.00;;;;;;5135930;27;20234;-67
2021/03/20 07:53:06;;;;;;;58.90;6.15;;;2.80;1.00;;;;;;5135546;27;20706;-67
2021/03/20 07:55:49;;;;;;;59.15;5.90;;;3.00;1.00;;;;;;5135777;27;20221;-67
2021/03/20 07:58:20;;;;;;;59.28;6.22;;;3.20;1.00;;;;;;5135599;27;20229;-67
2021/03/20 08:00:55;;;;;;;60.35;5.95;;;3.40;1.00;;;;;;5135457;27;20663;-67
2021/03/20 08:03:25;;;;;;;60.00;6.10;;;3.60;1.00;;;;;;5135741;27;20292;-67
2021/03/20 08:05:52;;;;;;;59.45;5.95;;;3.60;1.00;;;;;;5135436;27;20199;-67
2021/03/20 08:08:21;;;;;;;59.25;6.07;;;3.50;1.00;;;;;;5135520;27;20379;-67
2021/03/20 08:10:49;;;;;;;60.20;5.90;;;3.40;1.00;;;;;;5135363;27;20202;-67
2021/03/20 08:13:29;;;;;;;60.45;5.47;;;3.10;1.00;;;;;;5134017;27;20666;-67
2021/03/20 08:15:57;;;;;;;58.55;6.15;;;3.00;1.00;;;;;;5135459;27;20206;-67
2021/03/20 08:18:26;;;;;;;58.97;6.20;;;3.00;1.00;;;;;;5135365;27;20254;-66
2021/03/20 08:21:20;;;;;;;58.28;5.50;;;3.00;1.00;;;;;;5135318;27;20305;-66
2021/03/20 08:24:34;;;;;;;59.78;5.32;;;3.00;1.00;;;;;;5134862;27;20285;-67
2021/03/20 08:27:10;;;;;;;58.85;5.50;;;2.90;1.00;;;;;;5071435;28;20602;-67
2021/03/20 08:29:52;;;;;;;61.60;5.25;;;2.90;1.00;;;;;;5124238;27;20293;-67
2021/03/20 08:32:42;;;;;;;59.00;5.50;;;2.90;1.00;;;;;;5135360;27;20230;-67
2021/03/20 08:35:17;;;;;;;60.33;6.35;;;2.90;1.00;;;;;;5134924;27;20629;-67
2021/03/20 08:38:18;;;;;;;60.08;5.72;;;3.00;1.00;;;;;;5135138;27;20309;-67
2021/03/20 08:40:58;;;;;;;60.70;6.40;;;3.00;1.00;;;;;;5110475;27;20297;-67
2021/03/20 08:43:50;;;;;;;58.40;5.30;;;3.00;1.00;;;;;;5134832;27;20199;-67
2021/03/20 08:46:35;;;;;;;60.22;5.00;;;3.10;1.00;;;;;;5133983;27;20207;-66
2021/03/20 08:49:13;;;;;;;60.60;5.50;;;3.00;1.00;;;;;;5135200;27;20206;-66
2021/03/20 08:51:50;;;;;;;59.70;4.93;;;2.90;1.00;;;;;;5134783;27;20206;-66
2021/03/20 08:54:36;;;;;;;58.70;5.43;;;2.80;1.00;;;;;;5134565;27;20271;-66
2021/03/20 08:57:24;;;;;;;59.75;5.80;;;2.80;1.00;;;;;;5134537;27;20772;-67
2021/03/20 08:59:53;;;;;;;61.05;5.40;;;2.80;1.00;;;;;;5134643;27;20207;-67
2021/03/20 09:02:34;;;;;;;58.58;4.90;;;2.90;1.00;;;;;;5134324;27;20212;-67
2021/03/20 09:05:11;;;;;;;57.67;5.20;;;2.90;1.00;;;;;;5134748;27;20193;-67
2021/03/20 09:07:41;;;;;;;57.80;4.68;;;2.80;1.00;;;;;;5134328;27;20356;-67
2021/03/20 09:10:17;;;;;;;57.60;4.20;;;2.80;1.00;;;;;;5134281;27;20238;-67
2021/03/20 09:12:48;;;;;;;57.25;3.92;;;2.80;1.00;;;;;;5134278;27;20233;-67
2021/03/20 09:15:19;;;;;;;62.15;4.95;;;2.80;1.00;;;;;;5134378;27;20559;-67
2021/03/20 09:17:45;;;;;;;57.67;4.95;;;2.90;1.00;;;;;;5134336;27;20265;-67
2021/03/20 09:20:26;;;;;;;58.85;4.68;;;3.00;1.00;;;;;;5133960;27;20290;-67
2021/03/20 09:22:53;;;;;;;58.60;4.90;;;3.30;1.00;;;;;;5134200;27;20297;-67
2021/03/20 09:25:29;;;;;;;56.08;4.10;;;3.50;1.00;;;;;;5134101;27;20289;-67
2021/03/20 09:28:01;;;;;;;56.58;4.13;;;3.90;1.00;;;;;;5133985;27;20351;-66
2021/03/20 09:30:31;;;;;;;57.55;4.28;;;4.40;1.00;;;;;;5133755;27;20310;-67
2021/03/20 09:32:58;;;;;;;59.20;4.97;;;4.70;1.00;;;;;;5134051;27;20258;-67
2021/03/20 09:35:38;;;;;;;56.17;3.92;;;5.10;1.00;;;;;;5133695;27;20215;-67
2021/03/20 09:38:05;;;;;;;57.15;3.92;;;5.50;1.00;;;;;;5133888;27;20310;-67
2021/03/20 09:40:48;;;;;;;58.20;4.28;;;6.00;1.00;;;;;;5133682;27;20206;-67
2021/03/20 09:43:37;;;;;;;58.13;4.30;;;6.40;1.00;;;;;;5133755;27;20208;-67
2021/03/20 09:46:27;;;;;;;57.35;4.25;;;6.60;1.00;;;;;;5133657;27;20355;-67
2021/03/20 09:48:54;;;;;;;58.60;4.60;;;6.90;1.00;;;;;;5133417;27;20596;-67
2021/03/20 09:51:58;;;;;;;57.63;3.97;;;7.10;1.00;;;;;;5133364;27;20203;-67
2021/03/20 09:54:41;;;;;;;58.57;4.10;;;7.50;1.00;;;;;;5133860;27;20294;-67
2021/03/20 09:57:48;;;;;;;58.17;4.50;;;7.80;1.00;;;;;;5133386;27;20834;-67
2021/03/20 10:00:35;;;;;;;56.93;4.10;;;7.90;1.00;;;;;;5133450;27;20822;-67
2021/03/20 10:03:01;;;;;;;57.03;3.77;;;8.40;1.00;;;;;;5133149;27;20531;-67
2021/03/20 10:05:30;;;;;;;58.00;4.07;;;8.50;1.00;;;;;;5133119;27;20529;-65
2021/03/20 10:07:59;;;;;;;57.47;3.87;;;8.50;1.00;;;;;;5133029;27;20899;-66
2021/03/20 10:10:48;;;;;;;60.23;4.20;;;8.60;1.00;;;;;;5133389;27;20487;-66
2021/03/20 10:13:19;;;;;;;57.93;4.27;;;9.20;1.00;;;;;;5133132;27;20531;-66
2021/03/20 10:15:56;;;;;;;57.70;4.47;;;9.80;1.00;;;;;;5133062;27;20452;-66
2021/03/20 10:18:54;;;;;;;60.20;5.63;;;10.40;1.00;;;;;;5132910;27;20595;-66
2021/03/20 10:21:24;;;;;;;57.47;3.70;;;11.00;1.00;;;;;;5133181;27;20440;-66
2021/03/20 10:24:00;;;;;;;57.60;3.60;;;11.50;1.00;;;;;;5133520;27;20493;-66
2021/03/20 10:26:36;;;;;;;59.40;4.17;;;12.20;1.00;;;;;;5132973;27;20459;-66
2021/03/20 10:29:06;;;;;;;57.50;4.07;;;12.90;1.00;;;;;;5133057;27;20444;-66
2021/03/20 10:31:39;;;;;;;58.37;3.77;;;13.80;1.00;;;;;;5133084;27;20996;-66
2021/03/20 10:34:10;;;;;;;57.17;3.63;;;14.70;1.00;;;;;;5132770;27;20476;-66
2021/03/20 10:36:39;;;;;;;57.50;3.60;;;15.40;1.00;;;;;;5132720;27;20473;-66
2021/03/20 10:39:24;;;;;;;56.57;3.50;;;16.10;1.00;;;;;;5132628;27;20531;-66
2021/03/20 10:41:56;;;;;;;57.37;4.20;;;16.80;1.00;;;;;;5132771;27;20459;-66
2021/03/20 10:44:25;;;;;;;57.23;4.20;;;16.70;1.00;;;;;;5132844;27;20587;-66
2021/03/20 10:47:01;;;;;;;57.63;3.93;;;16.40;1.00;;;;;;5132464;27;20470;-68
2021/03/20 10:49:31;;;;;;;58.80;4.50;;;16.70;1.00;;;;;;5132695;27;20582;-67
2021/03/20 10:51:58;;;;;;;60.40;4.20;;;16.90;1.00;;;;;;5132881;27;20535;-67
2021/03/20 10:54:31;;;;;;;60.80;4.83;;;17.20;1.00;;;;;;5132735;27;20538;-66
2021/03/20 10:57:03;;;;;;;57.20;3.80;;;17.90;1.00;;;;;;5132415;27;20555;-66
2021/03/20 10:59:33;;;;;;;56.63;3.80;;;18.00;1.00;;;;;;5132692;27;20902;-66
2021/03/20 11:02:19;;;;;;;56.53;3.73;;;17.90;1.00;;;;;;5132406;27;20450;-66
2021/03/20 11:04:46;;;;;;;57.50;4.13;;;18.00;1.00;;;;;;5132702;27;20538;-66
2021/03/20 11:07:16;;;;;;;56.77;4.07;;;17.70;1.00;;;;;;5132548;27;20490;-66
2021/03/20 11:09:43;;;;;;;58.80;4.00;;;17.60;1.00;;;;;;5135521;27;20539;-66
2021/03/20 11:12:14;;;;;;;58.73;3.63;;;18.10;1.00;;;;;;5136439;27;20476;-66
2021/03/20 11:14:51;;;;;;;57.30;4.03;;;18.70;1.00;;;;;;5136495;27;20448;-66
2021/03/20 11:17:21;;;;;;;57.60;4.33;;;18.40;1.00;;;;;;5136722;27;20499;-66
2021/03/20 11:19:49;;;;;;;57.67;4.10;;;19.00;1.00;;;;;;5136661;27;20444;-67
2021/03/20 11:22:19;;;;;;;58.40;3.93;;;20.00;1.00;;;;;;5136454;27;20446;-67
2021/03/20 11:24:53;;;;;;;57.57;4.47;;;20.90;1.00;;;;;;5136425;27;20888;-66
2021/03/20 11:27:22;;;;;;;58.70;4.07;;;20.60;1.00;;;;;;5136246;27;20498;-66
2021/03/20 11:29:52;;;;;;;57.57;4.33;;;20.90;1.00;;;;;;5136251;27;20485;-66
2021/03/20 11:32:28;;;;;;;56.97;3.97;;;21.50;1.00;;;;;;5136007;27;20509;-66
2021/03/20 11:35:05;;;;;;;57.67;4.07;;;22.00;1.00;;;;;;5135968;27;20487;-66
2021/03/20 11:37:32;;;;;;;57.20;4.10;;;22.40;1.00;;;;;;5135999;27;20543;-67
2021/03/20 11:40:01;;;;;;;58.23;4.83;;;22.60;1.00;;;;;;5136261;27;20488;-66
2021/03/20 11:42:34;;;;;;;57.20;4.20;;;22.20;1.00;;;;;;5135886;27;20861;-66
2021/03/20 11:45:04;;;;;;;56.60;3.80;;;22.10;1.00;;;;;;5135905;27;20454;-67
2021/03/20 11:47:33;;;;;;;57.03;4.17;;;21.40;1.00;;;;;;5135728;27;20464;-67
2021/03/20 11:50:00;;;;;;;57.77;4.23;;;21.70;1.00;;;;;;5135658;27;20479;-67
2021/03/20 11:52:29;;;;;;;57.37;4.10;;;22.10;1.00;;;;;;5135767;27;20476;-67
2021/03/20 11:55:01;;;;;;;56.80;4.60;;;22.50;1.00;;;;;;5135833;27;20860;-67
2021/03/20 11:57:35;;;;;;;57.80;4.47;;;22.80;1.00;;;;;;5135713;27;20590;-67
2021/03/20 12:00:26;;;;;;;57.13;4.57;;;23.40;1.00;;;;;;5135702;27;20444;-67
2021/03/20 12:02:53;;;;;;;57.27;4.00;;;24.00;1.00;;;;;;5135355;27;20472;-68
2021/03/20 12:05:29;;;;;;;57.60;4.30;;;24.60;1.00;;;;;;5135600;27;20486;-67
2021/03/20 12:08:28;;;;;;;57.50;3.83;;;24.70;1.00;;;;;;5135441;27;20557;-66
2021/03/20 12:10:58;;;;;;;57.20;4.00;;;24.60;1.00;;;;;;5130832;27;20452;-67
2021/03/20 12:13:39;;;;;;;57.70;4.60;;;23.60;1.00;;;;;;5135200;27;20506;-67
2021/03/20 12:16:05;;;;;;;57.80;3.97;;;22.30;1.00;;;;;;5135410;27;20440;-66
2021/03/20 12:18:34;;;;;;;57.40;3.90;;;21.80;1.00;;;;;;5135302;27;20532;-66
2021/03/20 12:21:05;;;;;;;57.43;4.50;;;21.50;1.00;;;;;;5134151;27;20445;-67
2021/03/20 12:23:33;;;;;;;58.33;4.10;;;21.00;1.00;;;;;;5134858;27;20527;-67
2021/03/20 12:26:01;;;;;;;57.00;4.33;;;21.30;1.00;;;;;;5135410;27;20447;-67
2021/03/20 12:28:32;;;;;;;58.30;4.73;;;21.80;1.00;;;;;;5135239;27;20558;-67
2021/03/20 12:31:13;;;;;;;57.30;4.40;;;22.70;1.00;;;;;;5135096;27;20950;-67
2021/03/20 12:33:51;;;;;;;58.27;4.70;;;23.10;1.00;;;;;;5134843;27;20796;-66
2021/03/20 12:36:39;;;;;;;58.67;4.30;;;22.20;1.00;;;;;;5134896;27;21084;-66
2021/03/20 12:39:07;;;;;;;58.07;4.90;;;20.60;1.00;;;;;;5135049;27;20532;-66
2021/03/20 12:41:36;;;;;;;58.00;4.37;;;19.50;1.00;;;;;;5134922;27;20556;-66
2021/03/20 12:44:13;;;;;;;58.37;4.70;;;18.40;1.00;;;;;;5134694;27;20437;-67
2021/03/20 12:46:41;;;;;;;58.70;5.47;;;18.00;1.00;;;;;;5134894;27;20455;-66
2021/03/20 12:49:08;;;;;;;59.70;4.50;;;18.50;1.00;;;;;;5135000;27;20479;-66
2021/03/20 12:51:35;;;;;;;57.33;4.43;;;19.70;1.00;;;;;;5134683;27;20476;-66
2021/03/20 12:54:02;;;;;;;58.47;4.67;;;20.60;1.00;;;;;;5134368;27;20583;-66
2021/03/20 12:56:28;;;;;;;57.87;5.03;;;20.40;1.00;;;;;;5134564;27;20526;-66
2021/03/20 12:58:55;;;;;;;58.20;4.77;;;20.50;1.00;;;;;;5134171;27;20473;-66
2021/03/20 13:01:22;;;;;;;57.60;4.57;;;20.70;1.00;;;;;;5134674;27;20920;-66
2021/03/20 13:03:48;;;;;;;57.20;4.60;;;21.00;1.00;;;;;;5134455;27;20878;-66
2021/03/20 13:06:15;;;;;;;57.50;3.93;;;22.30;1.00;;;;;;5134372;27;20944;-66
2021/03/20 13:08:41;;;;;;;56.80;4.00;;;23.90;1.00;;;;;;5134220;27;20565;-66
2021/03/20 13:11:08;;;;;;;56.70;3.90;;;24.80;1.00;;;;;;5134249;27;20440;-66
2021/03/20 13:13:35;;;;;;;57.63;4.13;;;24.50;1.00;;;;;;5133762;27;20483;-66
2021/03/20 13:16:02;;;;;;;57.10;4.33;;;24.20;1.00;;;;;;5134059;27;20442;-66